createdAt,value
2023-03-02T00:01:10.468Z,41.59
2023-03-02T00:03:39.974Z,41.60
2023-03-02T00:06:09.033Z,42.67
2023-03-02T00:08:37.420Z,41.77
2023-03-02T00:11:04.747Z,42.37
2023-03-02T00:13:34.537Z,42.13
2023-03-02T00:16:01.518Z,42.13
2023-03-02T00:18:28.503Z,42.32
2023-03-02T00:20:56.452Z,42.46
2023-03-02T00:23:23.366Z,42.90
2023-03-02T00:25:50.256Z,42.77
2023-03-02T00:28:17.108Z,42.85
2023-03-02T00:30:44.074Z,42.92
2023-03-02T00:33:10.956Z,43.02
2023-03-02T00:35:42.019Z,42.92
2023-03-02T00:38:09.356Z,43.58
2023-03-02T00:40:36.631Z,43.29
2023-03-02T00:43:03.800Z,43.17
2023-03-02T00:45:30.972Z,43.66
2023-03-02T00:47:58.589Z,44.21
2023-03-02T00:50:25.512Z,43.99
2023-03-02T00:52:52.518Z,43.75
2023-03-02T00:55:19.638Z,43.12
2023-03-02T00:57:55.090Z,43.68
2023-03-02T01:00:28.672Z,43.99
2023-03-02T01:02:59.699Z,43.89
2023-03-02T01:05:26.773Z,43.84
2023-03-02T01:07:53.713Z,43.60
2023-03-02T01:10:20.686Z,44.62
2023-03-02T01:12:47.683Z,44.20
2023-03-02T01:15:14.633Z,44.29
2023-03-02T01:17:43.196Z,43.64
2023-03-02T01:20:11.554Z,43.89
2023-03-02T01:22:38.495Z,44.67
2023-03-02T01:25:06.269Z,44.52
2023-03-02T01:27:33.219Z,44.42
2023-03-02T01:30:00.172Z,44.32
2023-03-02T01:32:27.528Z,44.69
2023-03-02T01:34:54.695Z,45.39
2023-03-02T01:37:23.051Z,44.59
2023-03-02T01:39:50.720Z,44.48
2023-03-02T01:42:18.207Z,46.61
2023-03-02T01:44:48.656Z,45.81
2023-03-02T01:47:25.648Z,46.40
2023-03-02T01:50:23.384Z,47.52
2023-03-02T01:52:55.372Z,45.23
2023-03-02T01:55:26.210Z,45.44
2023-03-02T01:57:55.236Z,45.10
2023-03-02T02:00:31.833Z,45.75
2023-03-02T02:03:08.885Z,46.28
2023-03-02T02:05:41.241Z,45.54
2023-03-02T02:08:10.065Z,46.26
2023-03-02T02:14:20.067Z,46.23
2023-03-02T02:16:47.261Z,47.02
2023-03-02T02:19:50.658Z,47.11
2023-03-02T02:22:30.649Z,46.34
2023-03-02T02:25:04.202Z,46.70
2023-03-02T02:27:33.866Z,46.12
2023-03-02T02:30:05.438Z,45.96
2023-03-02T02:32:37.117Z,45.85
2023-03-02T02:35:13.037Z,46.24
2023-03-02T02:38:02.669Z,46.65
2023-03-02T02:40:58.918Z,46.86
2023-03-02T02:43:32.389Z,46.19
2023-03-02T02:46:01.387Z,46.03
2023-03-02T02:48:31.359Z,46.22
2023-03-02T02:51:00.649Z,45.76
2023-03-02T02:53:35.302Z,46.51
2023-03-02T02:56:05.290Z,46.15
2023-03-02T02:58:37.757Z,46.23
2023-03-02T03:01:06.987Z,45.83
2023-03-02T03:03:38.441Z,46.62
2023-03-02T03:06:21.119Z,46.58
2023-03-02T03:08:55.932Z,46.40
2023-03-02T03:11:34.800Z,46.18
2023-03-02T03:14:16.167Z,46.24
2023-03-02T03:16:47.873Z,45.62
2023-03-02T03:19:27.246Z,45.87
2023-03-02T03:21:57.959Z,45.67
2023-03-02T03:24:28.599Z,45.62
2023-03-02T03:26:56.128Z,45.27
2023-03-02T03:29:25.541Z,45.44
2023-03-02T03:31:57.513Z,45.34
2023-03-02T03:34:25.979Z,45.05
2023-03-02T03:36:54.167Z,44.94
2023-03-02T03:39:21.901Z,44.79
2023-03-02T03:41:50.407Z,44.91
2023-03-02T03:44:17.561Z,44.78
2023-03-02T03:46:45.006Z,44.95
2023-03-02T03:49:12.361Z,44.71
2023-03-02T03:51:40.116Z,44.53
2023-03-02T03:54:08.787Z,44.87
2023-03-02T03:56:42.894Z,44.97
2023-03-02T03:59:13.955Z,44.77
2023-03-02T04:01:49.430Z,44.56
2023-03-02T04:04:20.737Z,44.89
2023-03-02T04:06:49.020Z,44.30
2023-03-02T04:09:18.151Z,44.23
2023-03-02T04:11:47.844Z,44.54
2023-03-02T04:14:16.378Z,44.17
2023-03-02T04:16:44.510Z,44.13
2023-03-02T04:19:13.384Z,44.15
2023-03-02T04:21:45.362Z,44.06
2023-03-02T04:24:14.720Z,44.25
2023-03-02T04:26:43.007Z,44.19
2023-03-02T04:29:11.483Z,43.93
2023-03-02T04:31:39.767Z,43.93
2023-03-02T04:34:07.891Z,43.83
2023-03-02T04:36:39.847Z,43.50
2023-03-02T04:39:11.093Z,43.79
2023-03-02T04:41:38.173Z,43.55
2023-03-02T04:44:05.370Z,43.79
2023-03-02T04:46:34.826Z,43.68
2023-03-02T04:49:02.245Z,43.54
2023-03-02T04:51:31.887Z,43.66
2023-03-02T04:54:02.045Z,43.56
2023-03-02T04:56:29.399Z,43.41
2023-03-02T04:58:56.838Z,43.36
2023-03-02T05:01:24.712Z,43.27
2023-03-02T05:03:51.965Z,43.44
2023-03-02T05:06:21.863Z,43.34
2023-03-02T05:08:49.201Z,43.57
2023-03-02T05:11:22.674Z,43.33
2023-03-02T05:13:57.924Z,43.38
2023-03-02T05:16:26.458Z,43.57
2023-03-02T05:18:53.365Z,43.52
2023-03-02T05:21:20.332Z,43.31
2023-03-02T05:23:47.502Z,43.54
2023-03-02T05:26:15.014Z,43.58
2023-03-02T05:28:42.417Z,43.35
2023-03-02T05:31:10.684Z,43.88
2023-03-02T05:33:37.643Z,43.48
2023-03-02T05:36:04.849Z,43.63
2023-03-02T05:38:31.840Z,43.70
2023-03-02T05:40:59.119Z,43.66
2023-03-02T05:43:26.044Z,43.31
2023-03-02T05:45:52.946Z,43.43
2023-03-02T05:48:19.854Z,43.53
2023-03-02T05:50:46.798Z,43.71
2023-03-02T05:53:13.793Z,43.87
2023-03-02T05:55:40.761Z,43.50
2023-03-02T05:58:09.290Z,43.52
2023-03-02T06:00:36.357Z,43.17
2023-03-02T06:03:03.593Z,43.43
2023-03-02T06:05:30.557Z,43.53
2023-03-02T06:07:57.666Z,43.43
2023-03-02T06:10:25.326Z,43.83
2023-03-02T06:12:52.535Z,43.52
2023-03-02T06:15:20.150Z,43.72
2023-03-02T06:17:47.426Z,43.80
2023-03-02T06:20:15.400Z,43.29
2023-03-02T06:22:45.379Z,43.43
2023-03-02T06:25:15.385Z,43.80
2023-03-02T06:27:42.708Z,43.55
2023-03-02T06:30:13.295Z,43.76
2023-03-02T06:32:40.393Z,43.67
2023-03-02T06:35:08.749Z,43.75
2023-03-02T06:37:35.808Z,43.80
2023-03-02T06:40:03.453Z,43.71
2023-03-02T06:42:30.377Z,43.54
2023-03-02T06:44:57.358Z,43.11
2023-03-02T06:47:25.384Z,43.27
2023-03-02T06:49:52.478Z,42.93
2023-03-02T06:52:19.424Z,43.10
2023-03-02T06:54:46.302Z,42.72
2023-03-02T06:57:13.241Z,42.84
2023-03-02T06:59:40.239Z,42.62
2023-03-02T07:02:07.549Z,42.64
2023-03-02T07:04:34.432Z,42.52
2023-03-02T07:07:01.463Z,42.61
2023-03-02T07:09:30.941Z,42.68
2023-03-02T07:11:58.008Z,42.57
2023-03-02T07:14:24.936Z,42.47
2023-03-02T07:16:52.177Z,42.34
2023-03-02T07:19:19.185Z,42.10
2023-03-02T07:21:46.127Z,42.13
2023-03-02T07:24:13.091Z,42.08
2023-03-02T07:26:40.021Z,42.31
2023-03-02T07:29:06.949Z,42.24
2023-03-02T07:31:34.163Z,41.92
2023-03-02T07:34:01.287Z,42.19
2023-03-02T07:36:28.157Z,42.18
2023-03-02T07:38:55.173Z,42.22
2023-03-02T07:41:22.958Z,42.11
2023-03-02T07:43:49.941Z,41.92
2023-03-02T07:46:16.933Z,41.86
2023-03-02T07:48:44.403Z,41.72
2023-03-02T07:51:11.325Z,41.68
2023-03-02T07:53:38.427Z,41.79
2023-03-02T07:56:10.246Z,41.83
2023-03-02T07:58:38.080Z,41.51
2023-03-02T08:01:06.773Z,41.52
2023-03-02T08:03:33.739Z,41.49
2023-03-02T08:06:10.484Z,41.25
2023-03-02T08:08:37.999Z,41.13
2023-03-02T08:11:23.023Z,41.13
2023-03-02T08:13:49.894Z,41.10
2023-03-02T08:16:16.934Z,41.02
2023-03-02T08:18:44.443Z,41.00
2023-03-02T08:21:16.537Z,40.66
2023-03-02T08:23:43.781Z,40.87
2023-03-02T08:26:13.877Z,40.96
2023-03-02T08:28:42.153Z,41.01
2023-03-02T08:31:10.230Z,40.92
2023-03-02T08:33:37.735Z,40.96
2023-03-02T08:36:12.728Z,40.74
2023-03-02T08:38:40.230Z,40.65
2023-03-02T08:41:10.458Z,40.63
2023-03-02T08:43:37.721Z,40.21
2023-03-02T08:46:05.310Z,40.10
2023-03-02T08:48:32.713Z,39.97
2023-03-02T08:51:02.393Z,39.81
2023-03-02T08:53:31.202Z,39.55
2023-03-02T08:55:58.353Z,39.58
2023-03-02T08:58:25.553Z,39.46
2023-03-02T09:00:52.613Z,39.46
2023-03-02T09:03:19.726Z,39.29
2023-03-02T09:05:46.848Z,39.37
2023-03-02T09:08:14.134Z,39.30
2023-03-02T09:10:41.101Z,39.27
2023-03-02T09:13:08.738Z,39.05
2023-03-02T09:15:35.738Z,39.21
2023-03-02T09:18:02.658Z,39.09
2023-03-02T09:20:29.581Z,38.74
2023-03-02T09:22:56.469Z,37.68
2023-03-02T09:25:23.370Z,37.13
2023-03-02T09:27:50.247Z,35.59
2023-03-02T09:30:17.342Z,34.23
2023-03-02T09:32:44.477Z,33.15
2023-03-02T09:35:11.908Z,31.86
2023-03-02T09:37:39.120Z,31.94
2023-03-02T09:40:16.713Z,31.51
2023-03-02T09:42:55.624Z,30.50
2023-03-02T09:45:41.162Z,31.33
2023-03-02T09:48:32.510Z,30.25
2023-03-02T09:51:43.684Z,29.82
2023-03-02T09:54:21.326Z,30.16
2023-03-02T09:56:55.228Z,30.21
2023-03-02T10:00:01.618Z,30.86
2023-03-02T10:02:47.440Z,30.27
2023-03-02T10:05:20.707Z,30.98
2023-03-02T10:07:48.637Z,30.94
2023-03-02T10:10:18.138Z,31.34
2023-03-02T10:13:11.376Z,31.33
2023-03-02T10:16:05.966Z,32.12
2023-03-02T10:18:47.183Z,31.92
2023-03-02T10:21:44.177Z,31.76
2023-03-02T10:24:29.769Z,32.08
2023-03-02T10:27:31.531Z,32.43
2023-03-02T10:30:20.017Z,32.63
2023-03-02T10:32:50.574Z,32.85
2023-03-02T10:35:23.678Z,32.79
2023-03-02T10:38:17.398Z,32.63
2023-03-02T10:40:48.671Z,31.80
2023-03-02T10:43:23.700Z,32.02
2023-03-02T10:46:02.295Z,31.39
2023-03-02T10:48:29.632Z,31.22
2023-03-02T10:50:58.975Z,30.93
2023-03-02T10:53:26.478Z,31.07
2023-03-02T10:55:54.022Z,31.40
2023-03-02T10:58:25.981Z,31.56
2023-03-02T11:01:17.642Z,31.62
2023-03-02T11:04:04.904Z,31.60
2023-03-02T11:06:32.134Z,31.99
2023-03-02T11:09:07.537Z,32.04
2023-03-02T11:11:35.179Z,32.39
2023-03-02T11:14:19.635Z,32.19
2023-03-02T11:16:46.527Z,31.83
2023-03-02T11:19:17.730Z,32.37
2023-03-02T11:21:52.746Z,30.96
2023-03-02T11:24:46.784Z,31.30
2023-03-02T11:27:20.247Z,30.45
2023-03-02T11:30:03.110Z,30.57
2023-03-02T11:32:41.986Z,29.68
2023-03-02T11:35:30.741Z,29.85
2023-03-02T11:38:11.395Z,30.05
2023-03-02T11:40:53.731Z,30.00
2023-03-02T11:43:20.700Z,30.76
2023-03-02T11:45:57.003Z,30.83
2023-03-02T11:48:32.624Z,30.98
2023-03-02T11:51:11.924Z,31.67
2023-03-02T11:54:03.189Z,32.22
2023-03-02T11:56:36.853Z,32.54
2023-03-02T11:59:11.750Z,32.79
2023-03-02T12:01:40.466Z,33.05
2023-03-02T12:04:35.141Z,33.18
2023-03-02T12:07:16.719Z,33.30
2023-03-02T12:09:43.691Z,34.23
2023-03-02T12:12:19.212Z,34.41
2023-03-02T12:14:46.154Z,34.65
2023-03-02T12:17:32.474Z,35.39
2023-03-02T12:20:10.701Z,35.24
2023-03-02T12:22:37.979Z,35.53
2023-03-02T12:25:07.928Z,35.18
2023-03-02T12:27:42.144Z,35.32
2023-03-02T12:30:28.577Z,35.29
2023-03-02T12:33:20.716Z,34.96
2023-03-02T12:35:50.976Z,34.79
2023-03-02T12:38:28.384Z,34.55
2023-03-02T12:41:17.553Z,34.54
2023-03-02T12:43:56.620Z,34.40
2023-03-02T12:46:28.629Z,34.03
2023-03-02T12:49:01.070Z,34.07
2023-03-02T12:51:32.440Z,33.90
2023-03-02T12:54:04.909Z,33.79
2023-03-02T12:56:31.960Z,33.89
2023-03-02T12:58:59.558Z,33.98
2023-03-02T13:01:30.131Z,33.89
2023-03-02T13:03:57.655Z,33.65
2023-03-02T13:06:29.910Z,33.74
2023-03-02T13:08:58.914Z,33.79
2023-03-02T13:11:37.197Z,33.19
2023-03-02T13:14:19.640Z,33.75
2023-03-02T13:17:04.675Z,33.99
2023-03-02T13:19:34.138Z,33.63
2023-03-02T13:22:02.083Z,33.80
2023-03-02T13:24:31.696Z,33.26
2023-03-02T13:27:15.667Z,33.48
2023-03-02T13:29:42.692Z,33.08
2023-03-02T13:32:17.487Z,33.31
2023-03-02T13:34:50.411Z,33.26
2023-03-02T13:37:43.849Z,33.77
2023-03-02T13:40:24.388Z,33.60
2023-03-02T13:42:51.483Z,33.05
2023-03-02T13:45:25.028Z,32.72
2023-03-02T13:47:53.042Z,32.54
2023-03-02T13:50:38.209Z,32.15
2023-03-02T13:53:07.228Z,32.59
2023-03-02T13:55:35.515Z,32.38
2023-03-02T13:58:03.348Z,31.99
2023-03-02T14:00:35.230Z,32.11
2023-03-02T14:03:02.280Z,31.72
2023-03-02T14:05:35.767Z,31.55
2023-03-02T14:08:03.071Z,31.47
2023-03-02T14:10:30.048Z,31.53
2023-03-02T14:13:02.720Z,31.66
2023-03-02T14:15:29.905Z,31.01
2023-03-02T14:17:56.971Z,30.87
2023-03-02T14:20:24.011Z,30.79
2023-03-02T14:22:50.876Z,31.12
2023-03-02T14:25:18.057Z,30.71
2023-03-02T14:27:47.267Z,30.47
2023-03-02T14:30:18.680Z,30.24
2023-03-02T14:32:46.448Z,30.24
2023-03-02T14:35:15.876Z,30.46
2023-03-02T14:37:48.602Z,29.82
2023-03-02T14:40:21.669Z,30.21
2023-03-02T14:42:48.840Z,30.20
2023-03-02T14:45:16.574Z,30.18
2023-03-02T14:47:43.590Z,30.04
2023-03-02T14:50:12.182Z,30.11
2023-03-02T14:52:43.110Z,30.05
2023-03-02T14:55:18.460Z,30.59
2023-03-02T14:57:45.634Z,30.09
2023-03-02T15:00:15.579Z,30.35
2023-03-02T15:02:42.955Z,30.61
2023-03-02T15:05:10.696Z,31.09
2023-03-02T15:07:39.060Z,30.55
2023-03-02T15:10:07.297Z,30.28
2023-03-02T15:12:34.609Z,30.89
2023-03-02T15:15:01.498Z,30.81
2023-03-02T15:17:28.485Z,30.49
2023-03-02T15:19:55.428Z,30.59
2023-03-02T15:22:22.405Z,30.88
2023-03-02T15:24:49.338Z,31.04
2023-03-02T15:27:17.887Z,30.95
2023-03-02T15:29:46.565Z,30.13
2023-03-02T15:32:14.050Z,30.85
2023-03-02T15:34:41.428Z,30.09
2023-03-02T15:37:10.545Z,29.62
2023-03-02T15:39:38.130Z,29.44
2023-03-02T15:42:06.023Z,28.73
2023-03-02T15:44:33.601Z,28.92
2023-03-02T15:47:01.824Z,29.01
2023-03-02T15:49:31.682Z,29.99
2023-03-02T15:51:58.972Z,29.52
2023-03-02T15:54:27.160Z,29.42
2023-03-02T15:56:54.373Z,29.52
2023-03-02T15:59:26.902Z,28.82
2023-03-02T16:01:54.674Z,29.63
2023-03-02T16:04:21.852Z,29.55
2023-03-02T16:06:49.044Z,29.07
2023-03-02T16:09:19.290Z,30.51
2023-03-02T16:11:49.235Z,31.85
2023-03-02T16:14:16.283Z,36.72
2023-03-02T16:16:45.420Z,36.95
2023-03-02T16:19:14.538Z,35.37
2023-03-02T16:21:41.730Z,35.88
2023-03-02T16:24:09.271Z,33.17
2023-03-02T16:26:38.302Z,32.74
2023-03-02T16:29:08.107Z,33.63
2023-03-02T16:31:38.051Z,36.48
2023-03-02T16:34:09.528Z,35.36
2023-03-02T16:36:38.694Z,35.15
2023-03-02T16:39:07.281Z,35.91
2023-03-02T16:41:35.159Z,37.19
2023-03-02T16:44:02.202Z,37.01
2023-03-02T16:46:31.780Z,36.99
2023-03-02T16:48:59.049Z,37.11
2023-03-02T16:51:26.082Z,36.55
2023-03-02T16:53:52.946Z,35.05
2023-03-02T16:56:20.195Z,33.78
2023-03-02T16:58:47.294Z,32.80
2023-03-02T17:01:18.114Z,32.39
2023-03-02T17:03:46.600Z,31.97
2023-03-02T17:06:15.972Z,32.49
2023-03-02T17:08:43.115Z,32.27
2023-03-02T17:11:11.145Z,32.07
2023-03-02T17:13:38.352Z,32.13
2023-03-02T17:16:05.909Z,31.93
2023-03-02T17:18:33.790Z,32.16
2023-03-02T17:21:01.498Z,32.06
2023-03-02T17:23:34.180Z,31.25
2023-03-02T17:26:01.099Z,31.13
2023-03-02T17:28:28.163Z,30.66
2023-03-02T17:30:55.267Z,30.79
2023-03-02T17:33:22.379Z,31.14
2023-03-02T17:35:50.206Z,30.53
2023-03-02T17:38:17.187Z,31.24
2023-03-02T17:40:44.363Z,30.99
2023-03-02T17:43:12.577Z,31.02
2023-03-02T17:45:40.567Z,31.42
2023-03-02T17:48:07.811Z,30.81
2023-03-02T17:50:34.946Z,31.30
2023-03-02T17:53:03.060Z,30.75
2023-03-02T17:55:30.549Z,31.31
2023-03-02T17:57:57.688Z,31.10
2023-03-02T18:00:25.010Z,30.95
2023-03-02T18:02:52.479Z,31.08
2023-03-02T18:05:19.701Z,31.80
2023-03-02T18:07:46.606Z,31.30
2023-03-02T18:10:14.420Z,31.40
2023-03-02T18:12:41.284Z,31.27
2023-03-02T18:15:09.229Z,31.74
2023-03-02T18:17:36.469Z,31.68
2023-03-02T18:20:04.105Z,31.94
2023-03-02T18:22:31.251Z,31.71
2023-03-02T18:25:01.941Z,32.07
2023-03-02T18:27:28.929Z,31.85
2023-03-02T18:29:55.875Z,32.17
2023-03-02T18:32:23.748Z,32.18
2023-03-02T18:34:53.634Z,32.01
2023-03-02T18:37:21.028Z,32.52
2023-03-02T18:39:49.233Z,32.43
2023-03-02T18:42:16.498Z,32.45
2023-03-02T18:44:43.412Z,32.46
2023-03-02T18:47:15.768Z,32.53
2023-03-02T18:49:42.806Z,32.33
2023-03-02T18:52:10.017Z,32.68
2023-03-02T18:54:36.954Z,32.80
2023-03-02T18:57:04.052Z,32.69
2023-03-02T18:59:31.097Z,32.88
2023-03-02T19:01:58.088Z,32.69
2023-03-02T19:04:26.757Z,33.00
2023-03-02T19:06:56.204Z,33.17
2023-03-02T19:09:23.727Z,33.27
2023-03-02T19:11:50.898Z,33.50
2023-03-02T19:14:18.445Z,33.39
2023-03-02T19:16:46.389Z,33.50
2023-03-02T19:19:13.855Z,33.39
2023-03-02T19:21:41.120Z,33.69
2023-03-02T19:24:08.944Z,33.64
2023-03-02T19:26:36.261Z,33.87
2023-03-02T19:29:04.389Z,33.98
2023-03-02T19:31:32.974Z,34.03
2023-03-02T19:34:00.960Z,34.07
2023-03-02T19:36:31.069Z,34.23
2023-03-02T19:38:58.325Z,34.39
2023-03-02T19:41:25.237Z,34.38
2023-03-02T19:43:52.188Z,34.43
2023-03-02T19:46:19.293Z,34.78
2023-03-02T19:48:46.251Z,34.43
2023-03-02T19:51:15.179Z,34.84
2023-03-02T19:53:43.678Z,34.55
2023-03-02T19:56:14.368Z,34.69
2023-03-02T19:58:47.940Z,34.86
2023-03-02T20:01:21.628Z,34.76
2023-03-02T20:03:51.827Z,34.97
2023-03-02T20:06:21.093Z,34.92
2023-03-02T20:08:49.132Z,35.32
2023-03-02T20:11:16.633Z,35.18
2023-03-02T20:13:44.363Z,35.33
2023-03-02T20:16:13.985Z,35.17
2023-03-02T20:18:42.395Z,35.06
2023-03-02T20:21:09.416Z,35.21
2023-03-02T20:23:36.820Z,35.23
2023-03-02T20:26:05.529Z,35.30
2023-03-02T20:28:33.252Z,35.57
2023-03-02T20:31:03.942Z,35.52
2023-03-02T20:33:36.872Z,35.83
2023-03-02T20:36:04.775Z,35.69
2023-03-02T20:38:42.846Z,35.72
2023-03-02T20:41:11.977Z,35.77
2023-03-02T20:43:40.820Z,35.90
2023-03-02T20:46:09.998Z,35.86
2023-03-02T20:48:37.139Z,35.93
2023-03-02T20:51:04.558Z,36.08
2023-03-02T20:53:31.717Z,36.47
2023-03-02T20:55:58.951Z,36.28
2023-03-02T20:58:25.919Z,36.72
2023-03-02T21:00:53.988Z,36.84
2023-03-02T21:03:21.017Z,36.90
2023-03-02T21:05:49.107Z,37.20
2023-03-02T21:08:16.257Z,37.19
2023-03-02T21:10:44.176Z,37.99
2023-03-02T21:13:12.024Z,37.65
2023-03-02T21:15:41.219Z,37.80
2023-03-02T21:18:08.592Z,37.99
2023-03-02T21:20:36.269Z,37.75
2023-03-02T21:23:07.028Z,37.96
2023-03-02T21:25:34.296Z,38.03
2023-03-02T21:28:01.630Z,38.39
2023-03-02T21:30:35.770Z,38.41
2023-03-02T21:33:03.844Z,38.56
2023-03-02T21:35:31.222Z,38.82
2023-03-02T21:37:59.737Z,38.37
2023-03-02T21:40:31.917Z,38.34
2023-03-02T21:43:00.578Z,38.60
2023-03-02T21:45:29.018Z,38.64
2023-03-02T21:47:56.123Z,38.69
2023-03-02T21:50:27.114Z,39.21
2023-03-02T21:52:55.686Z,38.99
2023-03-02T21:55:22.844Z,38.92
2023-03-02T21:57:49.915Z,39.22
2023-03-02T22:00:24.894Z,39.87
2023-03-02T22:02:51.900Z,40.05
2023-03-02T22:05:20.077Z,39.76
2023-03-02T22:07:47.906Z,39.87
2023-03-02T22:10:38.928Z,40.55
2023-03-02T22:13:17.615Z,41.40
2023-03-02T22:15:46.462Z,40.36
2023-03-02T22:18:19.496Z,40.85
2023-03-02T22:20:51.796Z,41.03
2023-03-02T22:23:22.390Z,41.70
2023-03-02T22:25:52.489Z,41.67
2023-03-02T22:28:22.132Z,41.41
2023-03-02T22:30:51.063Z,41.52
2023-03-02T22:33:24.271Z,41.67
2023-03-02T22:35:54.278Z,42.40
2023-03-02T22:38:29.390Z,42.94
2023-03-02T22:40:57.241Z,42.51
2023-03-02T22:43:29.562Z,43.02
2023-03-02T22:46:17.622Z,43.04
2023-03-02T22:48:50.378Z,42.32
2023-03-02T22:51:20.109Z,42.41
2023-03-02T22:53:59.868Z,43.00
2023-03-02T22:56:34.103Z,42.83
2023-03-02T22:59:25.999Z,43.75
2023-03-02T23:01:58.214Z,43.38
2023-03-02T23:04:31.005Z,43.32
2023-03-02T23:07:00.742Z,43.18
2023-03-02T23:09:31.797Z,44.37
2023-03-02T23:12:02.397Z,43.77
2023-03-02T23:14:39.477Z,43.54
2023-03-02T23:17:14.458Z,43.89
2023-03-02T23:19:41.514Z,43.72
2023-03-02T23:22:09.437Z,43.65
2023-03-02T23:24:36.934Z,44.15
2023-03-02T23:27:04.024Z,44.61
2023-03-02T23:29:32.160Z,44.36
2023-03-02T23:31:59.283Z,44.12
2023-03-02T23:34:26.491Z,44.67
2023-03-02T23:36:53.384Z,44.44
2023-03-02T23:39:20.410Z,45.47
2023-03-02T23:41:47.778Z,45.26
2023-03-02T23:44:14.962Z,45.31
2023-03-02T23:46:41.961Z,46.27
2023-03-02T23:49:08.886Z,45.30
2023-03-02T23:51:35.775Z,45.58
2023-03-02T23:54:04.651Z,46.16
2023-03-02T23:56:31.750Z,45.72
2023-03-02T23:58:58.807Z,45.70
